Kinard, Florida
Current Conditions -  °F | °C
As of 9:56 PM on Sunday 25 Jan 2015 (Local Time) from KTDR Reporting Station
Scattered Clouds Scattered Clouds  
Wind Chill: 62°   Ceiling: Unl
Heat Index: 62°   Visibility: 10mi
Dew Point: 55°   Wind: 10mph
Humidity: 75%   Direction: 280°W
Pressure: 29.86"   Gusts: 24mph
Location:  30.27°N, 85.24°W
Report Text: KTDR 260356Z AUTO 28009G21KT 250V330 10SM SCT060 17/13 A2986 RMK AO2 SLP115 T01690125
Loading
Personal Weather Stations






























Interactive Weather Map New forecast layout! Learn more

10-Day Weather Forecast

Advertisements
Track Severe Weather on mobile